Time;durP1;ratioP1;P1;durP2;ratioP2;P2;SDS_P1;SDS_P2;PMS_P1;PMS_P2;Temp;Humidity;BMP_temperature;BMP_pressure;BME280_temperature;BME280_humidity;BME280_pressure;Samples;Min_cycle;Max_cycle;Signal;HPM_P1;HPM_P2
2023/03/06 00:00:22;;;;;;;2.10;1.42;;;;;;;;;;5053982;28;20214;-52
2023/03/06 00:02:48;;;;;;;2.50;1.30;;;;;;;;;;5055360;28;20690;-51
2023/03/06 00:05:14;;;;;;;1.88;1.50;;;;;;;;;;5058112;28;20210;-52
2023/03/06 00:07:41;;;;;;;1.95;1.58;;;;;;;;;;5053943;28;20189;-52
2023/03/06 00:10:07;;;;;;;1.98;1.52;;;;;;;;;;5051811;28;20183;-51
2023/03/06 00:12:33;;;;;;;2.13;1.40;;;;;;;;;;5046773;28;20164;-51
2023/03/06 00:14:59;;;;;;;2.75;1.40;;;;;;;;;;5054554;28;20178;-52
2023/03/06 00:17:26;;;;;;;1.48;1.38;;;;;;;;;;5056025;28;20697;-52
2023/03/06 00:19:52;;;;;;;2.03;1.70;;;;;;;;;;5059091;28;20186;-51
2023/03/06 00:22:18;;;;;;;1.48;1.33;;;;;;;;;;5072780;28;20576;-51
2023/03/06 00:24:44;;;;;;;1.83;1.40;;;;;;;;;;5057844;28;20206;-52
2023/03/06 00:27:10;;;;;;;2.05;1.40;;;;;;;;;;5061005;28;20167;-52
2023/03/06 00:29:36;;;;;;;1.60;1.50;;;;;;;;;;5052372;28;20244;-49
2023/03/06 00:32:02;;;;;;;1.30;1.20;;;;;;;;;;5051677;28;20178;-49
2023/03/06 00:34:27;;;;;;;2.38;1.50;;;;;;;;;;5070202;28;20201;-49
2023/03/06 00:36:53;;;;;;;1.95;1.40;;;;;;;;;;5057886;28;20266;-49
2023/03/06 00:39:20;;;;;;;1.45;1.27;;;;;;;;;;5060926;28;20186;-49
2023/03/06 00:41:46;;;;;;;1.60;1.48;;;;;;;;;;5051693;28;20614;-49
2023/03/06 00:44:12;;;;;;;1.45;1.35;;;;;;;;;;5059733;28;20214;-49
2023/03/06 00:46:38;;;;;;;1.33;1.20;;;;;;;;;;5042776;28;20179;-49
2023/03/06 00:49:04;;;;;;;1.83;1.70;;;;;;;;;;5061847;28;20204;-49
2023/03/06 00:51:30;;;;;;;1.63;1.52;;;;;;;;;;5047867;28;20445;-49
2023/03/06 00:53:56;;;;;;;1.30;1.20;;;;;;;;;;5052758;28;20182;-52
2023/03/06 00:56:22;;;;;;;1.30;1.20;;;;;;;;;;5058401;28;20187;-52
2023/03/06 00:58:48;;;;;;;1.58;1.10;;;;;;;;;;5051555;28;20262;-52
2023/03/06 01:01:14;;;;;;;1.35;1.17;;;;;;;;;;5061900;28;20309;-52
2023/03/06 01:03:40;;;;;;;1.48;1.38;;;;;;;;;;5056725;28;20541;-52
2023/03/06 01:06:06;;;;;;;1.40;1.27;;;;;;;;;;5058284;28;20191;-51
2023/03/06 01:08:31;;;;;;;1.38;1.27;;;;;;;;;;5055601;28;20175;-52
2023/03/06 01:10:57;;;;;;;1.60;1.50;;;;;;;;;;5052180;28;20468;-51
2023/03/06 01:13:23;;;;;;;1.48;1.20;;;;;;;;;;5053293;28;20195;-52
2023/03/06 01:15:49;;;;;;;1.73;1.40;;;;;;;;;;5051277;28;20172;-51
2023/03/06 01:18:15;;;;;;;2.53;1.40;;;;;;;;;;5056235;28;20183;-52
2023/03/06 01:20:41;;;;;;;2.30;1.75;;;;;;;;;;5059041;28;20198;-50
2023/03/06 01:23:07;;;;;;;1.30;1.20;;;;;;;;;;5059679;28;20182;-50
2023/03/06 01:25:33;;;;;;;2.08;1.40;;;;;;;;;;5067222;28;20645;-51
2023/03/06 01:27:59;;;;;;;1.90;1.55;;;;;;;;;;5055891;28;20183;-50
2023/03/06 01:30:25;;;;;;;1.52;1.17;;;;;;;;;;5049485;28;20504;-52
2023/03/06 01:32:51;;;;;;;1.80;1.30;;;;;;;;;;5055571;28;20565;-51
2023/03/06 01:35:16;;;;;;;1.63;1.17;;;;;;;;;;5070168;28;20290;-52
2023/03/06 01:37:42;;;;;;;1.65;1.25;;;;;;;;;;5073901;28;20197;-52
2023/03/06 01:40:09;;;;;;;1.35;1.25;;;;;;;;;;5048667;28;20179;-52
2023/03/06 01:42:35;;;;;;;1.30;1.20;;;;;;;;;;5066130;28;20269;-52
2023/03/06 01:45:06;;;;;;;1.40;1.30;;;;;;;;;;5059363;28;20306;-51
2023/03/06 01:47:32;;;;;;;1.48;1.30;;;;;;;;;;5072711;28;20573;-52
2023/03/06 01:50:00;;;;;;;1.33;1.23;;;;;;;;;;5052623;28;20206;-52
2023/03/06 01:52:29;;;;;;;1.40;1.20;;;;;;;;;;5062361;28;20183;-52
2023/03/06 01:54:58;;;;;;;1.30;1.20;;;;;;;;;;5060025;28;20218;-52
2023/03/06 01:57:26;;;;;;;1.20;1.10;;;;;;;;;;5055292;28;20176;-51
2023/03/06 01:59:59;;;;;;;1.50;1.40;;;;;;;;;;5052555;28;20199;-51
2023/03/06 02:02:25;;;;;;;1.20;1.10;;;;;;;;;;5065803;28;20200;-51
2023/03/06 02:04:51;;;;;;;1.40;1.23;;;;;;;;;;5068953;28;20298;-51
2023/03/06 02:07:19;;;;;;;1.88;1.52;;;;;;;;;;5069763;28;20261;-51
2023/03/06 02:09:44;;;;;;;1.35;1.25;;;;;;;;;;5054535;28;20245;-52
2023/03/06 02:12:12;;;;;;;2.42;1.23;;;;;;;;;;5049817;28;20552;-52
2023/03/06 02:14:39;;;;;;;1.85;1.33;;;;;;;;;;5056254;28;20187;-52
2023/03/06 02:17:05;;;;;;;1.13;1.00;;;;;;;;;;5062658;28;20542;-52
2023/03/06 02:19:31;;;;;;;2.00;1.40;;;;;;;;;;5062749;28;20183;-51
2023/03/06 02:21:57;;;;;;;1.42;1.30;;;;;;;;;;5051455;28;20217;-52
2023/03/06 02:24:35;;;;;;;1.38;1.27;;;;;;;;;;5073486;28;20244;-51
2023/03/06 02:27:02;;;;;;;1.30;1.20;;;;;;;;;;5058639;28;20225;-51
2023/03/06 02:29:29;;;;;;;1.67;1.40;;;;;;;;;;5052928;28;20192;-52
2023/03/06 02:31:55;;;;;;;1.23;1.13;;;;;;;;;;5050767;28;20179;-52
2023/03/06 02:34:21;;;;;;;1.20;1.10;;;;;;;;;;5072788;28;20505;-52
2023/03/06 02:36:49;;;;;;;1.27;1.17;;;;;;;;;;5055564;28;20244;-52
2023/03/06 02:39:17;;;;;;;1.40;1.30;;;;;;;;;;5047999;28;20180;-51
2023/03/06 02:41:43;;;;;;;1.45;1.23;;;;;;;;;;5048684;28;20189;-52
2023/03/06 02:44:09;;;;;;;1.35;1.25;;;;;;;;;;5052104;28;20214;-51
2023/03/06 02:46:35;;;;;;;1.30;1.20;;;;;;;;;;5054785;28;20252;-51
2023/03/06 02:49:01;;;;;;;1.50;1.23;;;;;;;;;;5050224;28;20191;-51
2023/03/06 02:51:30;;;;;;;1.38;1.27;;;;;;;;;;5037235;28;20215;-52
2023/03/06 02:53:56;;;;;;;1.23;1.13;;;;;;;;;;5044108;28;20191;-51
2023/03/06 02:56:22;;;;;;;1.58;1.10;;;;;;;;;;5055744;28;20198;-51
2023/03/06 02:58:48;;;;;;;1.30;1.20;;;;;;;;;;5075438;28;20577;-52
2023/03/06 03:01:14;;;;;;;1.30;1.20;;;;;;;;;;5054623;28;20187;-52
2023/03/06 03:03:40;;;;;;;1.20;1.10;;;;;;;;;;5045593;28;20198;-52
2023/03/06 03:06:06;;;;;;;2.17;1.45;;;;;;;;;;5037699;28;20187;-52
2023/03/06 03:08:32;;;;;;;1.30;1.20;;;;;;;;;;5045169;28;20183;-51
2023/03/06 03:10:58;;;;;;;1.20;1.10;;;;;;;;;;5048373;28;20171;-52
2023/03/06 03:13:24;;;;;;;1.20;1.10;;;;;;;;;;5049160;28;20201;-52
2023/03/06 03:15:57;;;;;;;1.25;1.15;;;;;;;;;;5054281;28;20175;-52
2023/03/06 03:18:23;;;;;;;1.80;1.20;;;;;;;;;;5047372;28;20221;-52
2023/03/06 03:20:49;;;;;;;1.30;1.20;;;;;;;;;;5039365;28;21013;-51
2023/03/06 03:23:15;;;;;;;1.45;1.23;;;;;;;;;;5063676;28;20206;-52
2023/03/06 03:25:40;;;;;;;1.35;1.25;;;;;;;;;;5060475;28;20202;-52
2023/03/06 03:28:06;;;;;;;1.58;1.25;;;;;;;;;;5047331;28;20191;-51
2023/03/06 03:30:32;;;;;;;1.40;1.30;;;;;;;;;;5053259;28;20261;-51
2023/03/06 03:32:58;;;;;;;1.20;1.10;;;;;;;;;;5056595;28;20262;-52
2023/03/06 03:35:24;;;;;;;1.90;1.30;;;;;;;;;;5054353;28;20200;-52
2023/03/06 03:37:51;;;;;;;1.38;1.27;;;;;;;;;;5060545;28;20187;-51
2023/03/06 03:40:17;;;;;;;1.45;1.30;;;;;;;;;;5051331;28;20179;-52
2023/03/06 03:42:43;;;;;;;1.38;1.25;;;;;;;;;;5062891;28;20562;-51
2023/03/06 03:45:09;;;;;;;1.67;1.40;;;;;;;;;;5060447;28;20217;-52
2023/03/06 03:47:35;;;;;;;2.58;1.33;;;;;;;;;;5055903;28;20224;-51
2023/03/06 03:50:01;;;;;;;1.70;1.40;;;;;;;;;;5056554;28;20202;-52
2023/03/06 03:52:27;;;;;;;1.40;1.30;;;;;;;;;;5063133;28;20554;-49
2023/03/06 03:54:53;;;;;;;1.45;1.27;;;;;;;;;;5050463;28;20183;-51
2023/03/06 03:57:19;;;;;;;2.45;1.63;;;;;;;;;;5044617;28;20191;-52
2023/03/06 03:59:45;;;;;;;1.55;1.45;;;;;;;;;;5037816;28;20214;-52
2023/03/06 04:02:10;;;;;;;1.40;1.30;;;;;;;;;;5043487;28;20569;-52
2023/03/06 04:04:36;;;;;;;1.40;1.30;;;;;;;;;;5050586;28;20211;-51
2023/03/06 04:07:03;;;;;;;1.30;1.20;;;;;;;;;;5050669;28;20404;-51
2023/03/06 04:09:29;;;;;;;1.38;1.27;;;;;;;;;;5047399;28;20179;-52
2023/03/06 04:11:55;;;;;;;2.20;1.30;;;;;;;;;;5057301;28;20569;-52
2023/03/06 04:14:21;;;;;;;1.27;1.17;;;;;;;;;;5052386;28;20183;-51
2023/03/06 04:16:47;;;;;;;1.63;1.48;;;;;;;;;;5054432;28;20261;-52
2023/03/06 04:19:13;;;;;;;1.63;1.30;;;;;;;;;;5044638;28;20191;-51
2023/03/06 04:21:39;;;;;;;1.33;1.23;;;;;;;;;;5059891;28;20187;-52
2023/03/06 04:24:05;;;;;;;1.63;1.52;;;;;;;;;;5056090;28;20230;-52
2023/03/06 04:26:31;;;;;;;1.27;1.08;;;;;;;;;;5060872;28;20562;-51
2023/03/06 04:28:57;;;;;;;1.92;1.20;;;;;;;;;;5051265;28;20278;-52
2023/03/06 04:31:23;;;;;;;1.55;1.45;;;;;;;;;;5049707;28;20186;-52
2023/03/06 04:33:49;;;;;;;1.52;1.25;;;;;;;;;;5058156;28;20459;-51
2023/03/06 04:36:28;;;;;;;1.60;1.27;;;;;;;;;;5054320;28;20202;-52
2023/03/06 04:38:54;;;;;;;1.95;1.45;;;;;;;;;;5054718;28;20421;-52
2023/03/06 04:41:20;;;;;;;1.35;1.20;;;;;;;;;;5055234;28;20186;-52
2023/03/06 04:43:46;;;;;;;1.42;1.20;;;;;;;;;;5061444;28;20178;-52
2023/03/06 04:46:12;;;;;;;1.20;1.10;;;;;;;;;;5054609;28;20190;-52
2023/03/06 04:48:38;;;;;;;1.63;1.40;;;;;;;;;;5064705;28;20195;-51
2023/03/06 04:51:04;;;;;;;1.42;1.13;;;;;;;;;;5054188;28;20198;-51
2023/03/06 04:53:31;;;;;;;2.10;1.33;;;;;;;;;;5046264;28;20183;-52
2023/03/06 04:55:57;;;;;;;1.52;1.23;;;;;;;;;;5050242;28;20729;-52
2023/03/06 04:58:23;;;;;;;1.90;1.48;;;;;;;;;;5074803;28;20170;-51
2023/03/06 05:00:49;;;;;;;2.15;1.30;;;;;;;;;;5052432;28;20231;-52
2023/03/06 05:03:15;;;;;;;1.58;1.48;;;;;;;;;;5060840;28;20549;-52
2023/03/06 05:05:41;;;;;;;1.52;1.27;;;;;;;;;;5051841;28;20219;-52
2023/03/06 05:08:07;;;;;;;2.63;1.27;;;;;;;;;;5050697;28;20434;-52
2023/03/06 05:10:33;;;;;;;1.55;1.35;;;;;;;;;;5054605;28;20180;-51
2023/03/06 05:12:58;;;;;;;1.00;0.90;;;;;;;;;;5051292;28;20171;-52
2023/03/06 05:15:24;;;;;;;1.45;1.35;;;;;;;;;;5057281;28;20206;-52
2023/03/06 05:17:50;;;;;;;1.38;1.27;;;;;;;;;;5049484;28;20186;-52
2023/03/06 05:20:17;;;;;;;1.20;1.10;;;;;;;;;;5043164;28;20466;-52
2023/03/06 05:22:43;;;;;;;1.55;1.30;;;;;;;;;;5056660;28;20179;-51
2023/03/06 05:25:09;;;;;;;1.70;1.40;;;;;;;;;;5064635;28;20210;-51
2023/03/06 05:27:36;;;;;;;1.17;1.08;;;;;;;;;;5058824;28;20179;-52
2023/03/06 05:30:02;;;;;;;1.30;1.20;;;;;;;;;;5049350;28;20202;-52
2023/03/06 05:32:28;;;;;;;1.42;1.30;;;;;;;;;;5062336;28;20731;-51
2023/03/06 05:34:54;;;;;;;1.63;1.48;;;;;;;;;;5053157;28;20179;-51
2023/03/06 05:37:21;;;;;;;3.00;1.45;;;;;;;;;;5074970;28;20208;-52
2023/03/06 05:39:47;;;;;;;2.33;1.42;;;;;;;;;;5066195;28;20186;-52
2023/03/06 05:42:13;;;;;;;2.17;1.42;;;;;;;;;;5063167;28;20488;-52
2023/03/06 05:44:40;;;;;;;1.38;1.23;;;;;;;;;;5065374;28;20214;-52
2023/03/06 05:47:07;;;;;;;2.72;1.30;;;;;;;;;;5055903;28;20174;-52
2023/03/06 05:49:34;;;;;;;1.33;1.23;;;;;;;;;;5051573;28;20182;-52
2023/03/06 05:52:02;;;;;;;1.30;1.20;;;;;;;;;;5073789;28;20174;-52
2023/03/06 05:54:28;;;;;;;2.58;1.27;;;;;;;;;;5075573;28;20178;-52
2023/03/06 05:56:56;;;;;;;2.38;1.60;;;;;;;;;;5064053;28;20432;-51
2023/03/06 05:59:22;;;;;;;1.88;1.10;;;;;;;;;;5066883;28;20218;-52
2023/03/06 06:01:48;;;;;;;1.67;1.55;;;;;;;;;;5054734;28;20178;-52
2023/03/06 06:04:14;;;;;;;2.08;1.42;;;;;;;;;;5055965;28;20206;-52
2023/03/06 06:06:40;;;;;;;1.67;1.58;;;;;;;;;;5053397;28;20186;-52
2023/03/06 06:09:06;;;;;;;3.45;1.38;;;;;;;;;;5072240;28;20178;-50
2023/03/06 06:11:32;;;;;;;3.83;1.55;;;;;;;;;;5062703;28;20193;-50
2023/03/06 06:13:58;;;;;;;1.90;1.60;;;;;;;;;;5058208;28;20460;-50
2023/03/06 06:16:24;;;;;;;4.93;1.67;;;;;;;;;;5046179;28;20184;-50
2023/03/06 06:18:50;;;;;;;2.70;1.52;;;;;;;;;;5068652;28;20597;-50
2023/03/06 06:21:16;;;;;;;1.85;1.30;;;;;;;;;;5050793;28;20184;-50
2023/03/06 06:23:42;;;;;;;1.75;1.52;;;;;;;;;;5053971;28;20558;-50
2023/03/06 06:26:09;;;;;;;2.72;1.70;;;;;;;;;;5047328;28;20175;-49
2023/03/06 06:28:35;;;;;;;1.48;1.38;;;;;;;;;;5062451;28;22146;-50
2023/03/06 06:31:07;;;;;;;1.80;1.40;;;;;;;;;;5043079;28;20748;-52
2023/03/06 06:33:33;;;;;;;1.90;1.60;;;;;;;;;;5066111;28;20413;-51
2023/03/06 06:35:58;;;;;;;2.63;1.52;;;;;;;;;;5067951;28;20193;-52
2023/03/06 06:38:24;;;;;;;1.90;1.63;;;;;;;;;;5063455;28;20182;-51
2023/03/06 06:40:50;;;;;;;1.83;1.60;;;;;;;;;;5064514;28;20175;-52
2023/03/06 06:43:16;;;;;;;3.08;1.75;;;;;;;;;;5064185;28;20186;-50
2023/03/06 06:45:43;;;;;;;2.70;1.58;;;;;;;;;;5067471;28;20595;-49
2023/03/06 06:48:09;;;;;;;1.67;1.58;;;;;;;;;;5075945;28;20443;-50
2023/03/06 06:50:35;;;;;;;2.65;1.50;;;;;;;;;;5064262;28;20266;-50
2023/03/06 06:53:01;;;;;;;2.67;1.67;;;;;;;;;;5059027;28;20254;-49
2023/03/06 06:55:27;;;;;;;2.58;1.67;;;;;;;;;;5058599;28;20194;-50
2023/03/06 06:57:53;;;;;;;2.33;1.50;;;;;;;;;;5067508;28;20444;-50
2023/03/06 07:00:19;;;;;;;3.10;1.90;;;;;;;;;;5058536;28;20199;-50
2023/03/06 07:02:48;;;;;;;2.63;1.48;;;;;;;;;;5073436;28;20179;-50
2023/03/06 07:05:13;;;;;;;3.33;1.70;;;;;;;;;;5066959;28;20198;-50
2023/03/06 07:07:39;;;;;;;2.42;1.60;;;;;;;;;;5070874;28;20594;-50
2023/03/06 07:10:07;;;;;;;1.77;1.50;;;;;;;;;;5059119;28;20174;-50
2023/03/06 07:12:33;;;;;;;2.25;1.35;;;;;;;;;;5058293;28;20486;-50
2023/03/06 07:14:59;;;;;;;2.75;1.50;;;;;;;;;;5074762;28;20231;-51
2023/03/06 07:17:25;;;;;;;1.70;1.60;;;;;;;;;;5075469;28;20273;-51
2023/03/06 07:19:51;;;;;;;2.75;1.60;;;;;;;;;;5070701;28;20187;-50
2023/03/06 07:22:17;;;;;;;2.35;1.50;;;;;;;;;;5061408;28;20194;-51
2023/03/06 07:24:43;;;;;;;2.15;1.75;;;;;;;;;;5074703;28;20217;-50
2023/03/06 07:27:09;;;;;;;2.28;1.52;;;;;;;;;;5056795;28;20263;-50
2023/03/06 07:29:35;;;;;;;2.42;1.73;;;;;;;;;;5048822;28;20195;-50
2023/03/06 07:32:01;;;;;;;1.85;1.50;;;;;;;;;;5063567;28;20229;-50
2023/03/06 07:34:27;;;;;;;1.80;1.70;;;;;;;;;;5064154;28;20551;-50
2023/03/06 07:36:53;;;;;;;1.52;1.25;;;;;;;;;;5067777;28;20187;-50
2023/03/06 07:39:18;;;;;;;1.90;1.40;;;;;;;;;;5071363;28;20183;-51
2023/03/06 07:41:44;;;;;;;3.63;1.42;;;;;;;;;;5062834;28;20257;-50
2023/03/06 07:44:10;;;;;;;3.00;1.88;;;;;;;;;;5062839;28;20207;-51
2023/03/06 07:46:36;;;;;;;1.63;1.50;;;;;;;;;;5059416;28;20205;-50
2023/03/06 07:49:02;;;;;;;2.03;1.42;;;;;;;;;;5074747;28;20281;-50
2023/03/06 07:51:28;;;;;;;3.22;1.70;;;;;;;;;;5060147;28;20187;-51
2023/03/06 07:53:54;;;;;;;2.53;1.63;;;;;;;;;;5067634;28;20162;-51
2023/03/06 07:56:20;;;;;;;2.83;1.50;;;;;;;;;;5057195;28;20182;-51
2023/03/06 07:58:47;;;;;;;2.40;1.73;;;;;;;;;;5049176;28;20411;-51
2023/03/06 08:01:14;;;;;;;2.65;1.73;;;;;;;;;;5051214;28;20213;-51
2023/03/06 08:03:40;;;;;;;3.80;1.83;;;;;;;;;;5049379;28;20202;-51
2023/03/06 08:06:07;;;;;;;2.42;1.88;;;;;;;;;;5053832;28;20429;-51
2023/03/06 08:08:34;;;;;;;4.88;1.92;;;;;;;;;;5040205;28;20270;-51
2023/03/06 08:11:00;;;;;;;3.03;1.92;;;;;;;;;;5043508;28;20188;-51
2023/03/06 08:13:25;;;;;;;3.45;1.60;;;;;;;;;;5052184;28;20439;-51
2023/03/06 08:15:51;;;;;;;2.38;1.92;;;;;;;;;;5059998;28;20190;-51
2023/03/06 08:18:17;;;;;;;3.45;1.45;;;;;;;;;;5054156;28;20190;-51
2023/03/06 08:20:43;;;;;;;1.80;1.70;;;;;;;;;;5052638;28;20598;-51
2023/03/06 08:23:10;;;;;;;3.17;1.88;;;;;;;;;;5060541;28;20282;-51
2023/03/06 08:25:36;;;;;;;3.60;1.63;;;;;;;;;;5053670;28;20966;-51
2023/03/06 08:28:02;;;;;;;5.10;1.95;;;;;;;;;;5069033;28;20183;-51
2023/03/06 08:30:29;;;;;;;3.60;1.58;;;;;;;;;;5055555;28;20195;-52
2023/03/06 08:32:55;;;;;;;2.83;1.80;;;;;;;;;;5059642;28;20187;-51
2023/03/06 08:35:22;;;;;;;2.78;2.03;;;;;;;;;;5058434;28;20196;-51
2023/03/06 08:37:48;;;;;;;10.32;2.95;;;;;;;;;;5044577;28;20191;-51
2023/03/06 08:40:13;;;;;;;7.15;3.17;;;;;;;;;;5061661;28;20185;-51
2023/03/06 08:42:39;;;;;;;7.07;2.80;;;;;;;;;;5070512;28;20464;-51
2023/03/06 08:45:06;;;;;;;6.55;2.45;;;;;;;;;;5044226;28;20207;-51
2023/03/06 08:47:33;;;;;;;7.25;2.30;;;;;;;;;;5044776;28;20224;-51
2023/03/06 08:49:59;;;;;;;6.57;2.25;;;;;;;;;;5067160;28;20186;-51
2023/03/06 08:52:25;;;;;;;11.13;2.70;;;;;;;;;;5062460;28;20187;-51
2023/03/06 08:54:51;;;;;;;8.98;2.53;;;;;;;;;;5046820;28;20563;-51
2023/03/06 08:57:17;;;;;;;8.18;2.60;;;;;;;;;;5051672;28;20194;-51
2023/03/06 08:59:43;;;;;;;4.93;2.28;;;;;;;;;;5045902;28;20536;-51
2023/03/06 09:02:14;;;;;;;7.97;2.80;;;;;;;;;;5035297;28;20182;-51
2023/03/06 09:04:39;;;;;;;5.13;2.22;;;;;;;;;;5038433;28;20199;-51
2023/03/06 09:07:06;;;;;;;9.02;2.75;;;;;;;;;;5042264;28;20443;-51
2023/03/06 09:09:32;;;;;;;7.07;2.55;;;;;;;;;;5050586;28;20186;-51
2023/03/06 09:11:58;;;;;;;5.35;2.50;;;;;;;;;;5047359;28;20179;-51
2023/03/06 09:14:24;;;;;;;4.85;2.25;;;;;;;;;;5047522;28;20175;-51
2023/03/06 09:16:50;;;;;;;7.68;3.00;;;;;;;;;;5061460;28;20559;-51
2023/03/06 09:19:15;;;;;;;5.40;2.72;;;;;;;;;;5046528;28;20515;-51
2023/03/06 09:21:42;;;;;;;7.65;2.78;;;;;;;;;;5041376;28;20183;-51
2023/03/06 09:24:08;;;;;;;5.65;2.90;;;;;;;;;;5050968;28;20475;-51
2023/03/06 09:26:34;;;;;;;5.57;2.55;;;;;;;;;;5049851;28;20197;-51
2023/03/06 09:29:00;;;;;;;3.88;2.50;;;;;;;;;;5062448;28;20186;-51
2023/03/06 09:31:26;;;;;;;5.78;2.70;;;;;;;;;;5063737;28;20661;-51
2023/03/06 09:33:51;;;;;;;5.15;3.03;;;;;;;;;;5077062;28;20178;-51
2023/03/06 09:36:21;;;;;;;7.97;2.53;;;;;;;;;;5061492;28;20252;-52
2023/03/06 09:38:48;;;;;;;5.18;2.70;;;;;;;;;;5049616;28;20174;-52
2023/03/06 09:41:26;;;;;;;8.45;2.80;;;;;;;;;;5054717;28;20197;-52
2023/03/06 09:43:54;;;;;;;8.43;2.65;;;;;;;;;;5047401;28;20788;-52
2023/03/06 09:46:24;;;;;;;6.63;2.60;;;;;;;;;;5049123;28;20207;-52
2023/03/06 09:48:50;;;;;;;5.22;2.45;;;;;;;;;;5056149;28;20231;-52
2023/03/06 09:51:16;;;;;;;4.60;2.65;;;;;;;;;;5065787;28;20613;-52
2023/03/06 09:53:53;;;;;;;2.97;2.08;;;;;;;;;;5074600;28;20202;-52
2023/03/06 09:56:21;;;;;;;6.00;2.67;;;;;;;;;;5057924;28;20240;-52
2023/03/06 09:58:49;;;;;;;6.43;2.40;;;;;;;;;;5052501;28;21481;-51
2023/03/06 10:01:16;;;;;;;5.82;2.40;;;;;;;;;;5063398;28;20183;-52
2023/03/06 10:03:47;;;;;;;3.08;2.30;;;;;;;;;;5049583;28;20410;-52
2023/03/06 10:06:17;;;;;;;4.88;2.25;;;;;;;;;;5067856;28;20185;-52
2023/03/06 10:09:02;;;;;;;3.55;2.20;;;;;;;;;;5052410;28;20547;-52
2023/03/06 10:11:32;;;;;;;4.95;2.58;;;;;;;;;;5068195;28;20179;-51
2023/03/06 10:14:13;;;;;;;4.03;2.50;;;;;;;;;;5046892;28;20179;-51
2023/03/06 10:16:39;;;;;;;4.25;2.40;;;;;;;;;;5068420;28;20189;-51
2023/03/06 10:19:11;;;;;;;4.32;2.72;;;;;;;;;;5057585;28;20174;-51
2023/03/06 10:21:37;;;;;;;6.15;2.83;;;;;;;;;;5063755;28;20171;-52
2023/03/06 10:24:09;;;;;;;8.15;2.60;;;;;;;;;;5076201;28;20225;-52
2023/03/06 10:26:39;;;;;;;5.72;2.35;;;;;;;;;;5041144;28;20453;-52
2023/03/06 10:29:20;;;;;;;5.32;2.40;;;;;;;;;;5043760;28;20196;-52
2023/03/06 10:31:50;;;;;;;6.35;2.80;;;;;;;;;;5052994;28;20191;-52
2023/03/06 10:34:28;;;;;;;5.28;2.80;;;;;;;;;;5074078;28;20174;-52
2023/03/06 10:36:54;;;;;;;7.13;2.75;;;;;;;;;;5060430;28;20324;-52
2023/03/06 10:39:21;;;;;;;5.88;2.70;;;;;;;;;;5059550;28;20188;-53
2023/03/06 10:41:47;;;;;;;4.82;2.42;;;;;;;;;;5064803;28;20948;-53
2023/03/06 10:44:13;;;;;;;4.40;2.75;;;;;;;;;;5060481;28;20198;-53
2023/03/06 10:46:43;;;;;;;11.45;2.70;;;;;;;;;;5051972;28;20693;-53
2023/03/06 10:49:28;;;;;;;5.43;2.33;;;;;;;;;;5058444;28;20183;-53
2023/03/06 10:51:55;;;;;;;5.53;2.72;;;;;;;;;;5043869;28;20270;-53
2023/03/06 10:54:21;;;;;;;3.85;2.53;;;;;;;;;;5035028;28;20210;-52
2023/03/06 10:56:47;;;;;;;6.75;2.38;;;;;;;;;;5060593;28;20538;-52
2023/03/06 10:59:18;;;;;;;3.85;2.40;;;;;;;;;;5058369;28;20190;-52
2023/03/06 11:01:46;;;;;;;3.33;2.15;;;;;;;;;;5044750;28;20183;-52
2023/03/06 11:04:16;;;;;;;5.18;2.60;;;;;;;;;;5050670;28;20207;-52
2023/03/06 11:06:42;;;;;;;3.83;2.20;;;;;;;;;;5040209;28;20230;-52
2023/03/06 11:09:24;;;;;;;9.10;4.00;;;;;;;;;;5040058;28;20188;-52
2023/03/06 11:11:51;;;;;;;6.55;3.92;;;;;;;;;;5054347;28;20563;-51
2023/03/06 11:14:18;;;;;;;9.50;4.05;;;;;;;;;;5048280;28;20209;-51
2023/03/06 11:16:54;;;;;;;9.48;3.80;;;;;;;;;;5055541;28;20191;-48
2023/03/06 11:19:27;;;;;;;9.30;3.67;;;;;;;;;;5044930;28;20268;-51
2023/03/06 11:21:59;;;;;;;20.38;3.63;;;;;;;;;;5055122;28;20186;-50
2023/03/06 11:24:26;;;;;;;6.57;3.80;;;;;;;;;;5055906;28;20593;-51
2023/03/06 11:26:55;;;;;;;6.20;4.07;;;;;;;;;;5056966;28;20194;-49
2023/03/06 11:29:30;;;;;;;12.50;4.00;;;;;;;;;;5053304;28;20270;-50
2023/03/06 11:32:02;;;;;;;6.53;3.88;;;;;;;;;;5062656;28;20178;-50
2023/03/06 11:34:40;;;;;;;6.97;4.03;;;;;;;;;;5055285;28;20483;-50
2023/03/06 11:37:10;;;;;;;7.93;4.03;;;;;;;;;;5060478;28;20352;-50
2023/03/06 11:39:41;;;;;;;8.05;4.07;;;;;;;;;;5049853;28;20184;-50
2023/03/06 11:42:26;;;;;;;8.80;4.00;;;;;;;;;;5052560;28;20261;-50
2023/03/06 11:45:15;;;;;;;6.47;3.78;;;;;;;;;;5070154;28;20289;-50
2023/03/06 11:47:52;;;;;;;8.13;3.95;;;;;;;;;;5056236;28;20698;-50
2023/03/06 11:50:21;;;;;;;7.40;3.50;;;;;;;;;;5057247;28;20174;-50
2023/03/06 11:52:56;;;;;;;5.32;3.45;;;;;;;;;;5046312;28;20179;-50
2023/03/06 11:55:28;;;;;;;6.43;3.70;;;;;;;;;;5056720;28;20182;-50
2023/03/06 11:58:12;;;;;;;5.70;3.22;;;;;;;;;;5043941;28;20264;-50
2023/03/06 12:00:47;;;;;;;6.32;3.50;;;;;;;;;;5040742;28;20238;-50
2023/03/06 12:03:21;;;;;;;4.93;3.60;;;;;;;;;;5040592;28;20190;-52
2023/03/06 12:05:52;;;;;;;4.57;3.10;;;;;;;;;;5058307;28;20613;-50
2023/03/06 12:08:21;;;;;;;5.15;2.95;;;;;;;;;;5058371;28;20257;-50
2023/03/06 12:11:05;;;;;;;6.05;3.30;;;;;;;;;;5036213;28;20195;-50
2023/03/06 12:13:48;;;;;;;5.47;3.80;;;;;;;;;;5066283;28;20182;-50
2023/03/06 12:16:21;;;;;;;5.05;3.63;;;;;;;;;;5043558;28;20211;-50
2023/03/06 12:18:57;;;;;;;8.70;3.92;;;;;;;;;;5058046;28;20188;-50
2023/03/06 12:21:37;;;;;;;5.00;3.45;;;;;;;;;;5056301;28;20201;-50
2023/03/06 12:24:11;;;;;;;6.10;3.38;;;;;;;;;;5063764;28;20204;-50
2023/03/06 12:26:40;;;;;;;5.15;3.45;;;;;;;;;;5056778;28;20187;-50
2023/03/06 12:29:21;;;;;;;8.32;3.70;;;;;;;;;;5045793;28;20716;-50
2023/03/06 12:32:07;;;;;;;7.13;3.53;;;;;;;;;;5055268;28;20262;-50
2023/03/06 12:34:39;;;;;;;3.30;2.92;;;;;;;;;;5063938;28;20175;-50
2023/03/06 12:37:08;;;;;;;4.40;3.53;;;;;;;;;;5053010;28;20237;-51
2023/03/06 12:39:50;;;;;;;4.80;2.92;;;;;;;;;;5066031;28;20809;-51
2023/03/06 12:42:23;;;;;;;7.18;3.13;;;;;;;;;;5074262;28;20178;-51
2023/03/06 12:45:07;;;;;;;4.18;2.97;;;;;;;;;;5072912;28;20206;-50
2023/03/06 12:47:38;;;;;;;5.45;3.00;;;;;;;;;;5054202;28;20186;-52
2023/03/06 12:50:12;;;;;;;5.40;2.83;;;;;;;;;;5065350;28;20176;-52
2023/03/06 12:52:38;;;;;;;4.47;3.00;;;;;;;;;;5056485;28;20265;-50
2023/03/06 12:55:06;;;;;;;4.78;2.67;;;;;;;;;;5070107;28;20182;-51
2023/03/06 12:57:32;;;;;;;3.60;2.25;;;;;;;;;;5074331;28;20178;-50
2023/03/06 12:59:58;;;;;;;4.15;2.40;;;;;;;;;;5077316;28;20178;-50
2023/03/06 13:02:39;;;;;;;3.85;2.53;;;;;;;;;;5074316;28;20202;-50
2023/03/06 13:05:23;;;;;;;5.63;2.75;;;;;;;;;;5069312;28;20289;-50
2023/03/06 13:08:10;;;;;;;4.50;2.60;;;;;;;;;;5066642;28;20226;-50
2023/03/06 13:10:39;;;;;;;5.22;2.58;;;;;;;;;;5055096;28;20225;-51
2023/03/06 13:13:23;;;;;;;2.67;2.10;;;;;;;;;;5065136;28;20186;-49
2023/03/06 13:16:08;;;;;;;5.60;2.38;;;;;;;;;;5047789;28;20274;-50
2023/03/06 13:18:34;;;;;;;7.63;2.28;;;;;;;;;;5055750;28;20271;-50
2023/03/06 13:21:00;;;;;;;6.45;2.45;;;;;;;;;;5042306;28;20536;-49
2023/03/06 13:23:31;;;;;;;4.35;2.30;;;;;;;;;;5057340;28;20182;-49
2023/03/06 13:25:58;;;;;;;4.95;2.40;;;;;;;;;;5046348;28;20308;-49
2023/03/06 13:28:50;;;;;;;3.90;2.30;;;;;;;;;;5069860;28;20179;-48
2023/03/06 13:31:31;;;;;;;4.25;2.08;;;;;;;;;;5036324;28;20196;-49
2023/03/06 13:33:59;;;;;;;3.28;2.00;;;;;;;;;;5050066;28;20549;-49
2023/03/06 13:36:27;;;;;;;5.03;2.10;;;;;;;;;;5060420;28;20474;-49
2023/03/06 13:38:54;;;;;;;6.43;2.42;;;;;;;;;;5057081;28;20601;-48
2023/03/06 13:41:20;;;;;;;6.55;2.22;;;;;;;;;;5053758;28;20301;-50
2023/03/06 13:43:47;;;;;;;7.22;2.03;;;;;;;;;;5047147;28;20525;-51
2023/03/06 13:46:17;;;;;;;3.10;2.10;;;;;;;;;;5055275;28;20311;-48
2023/03/06 13:48:43;;;;;;;4.07;2.03;;;;;;;;;;5057572;28;20180;-50
2023/03/06 13:51:14;;;;;;;6.60;2.10;;;;;;;;;;5052091;28;20784;-58
2023/03/06 13:53:48;;;;;;;8.05;1.98;;;;;;;;;;5046744;28;20189;-53
2023/03/06 13:56:21;;;;;;;2.40;2.05;;;;;;;;;;5041166;28;20570;-49
2023/03/06 13:59:06;;;;;;;6.05;2.22;;;;;;;;;;5044790;28;20187;-51
2023/03/06 14:01:39;;;;;;;4.78;1.83;;;;;;;;;;5044755;28;20199;-52
2023/03/06 14:04:31;;;;;;;5.13;1.88;;;;;;;;;;5044522;28;20194;-51
2023/03/06 14:07:06;;;;;;;5.78;1.95;;;;;;;;;;5041410;28;20184;-47
2023/03/06 14:09:37;;;;;;;2.45;1.95;;;;;;;;;;5043528;28;20260;-48
2023/03/06 14:12:12;;;;;;;4.03;1.60;;;;;;;;;;5042354;28;20215;-48
2023/03/06 14:14:41;;;;;;;1.42;1.33;;;;;;;;;;5042789;28;20265;-51
2023/03/06 14:17:14;;;;;;;3.90;1.50;;;;;;;;;;5054835;28;20179;-48
2023/03/06 14:19:41;;;;;;;3.15;1.45;;;;;;;;;;5049821;28;20249;-49
2023/03/06 14:22:12;;;;;;;3.50;1.52;;;;;;;;;;5067492;28;20217;-51
2023/03/06 14:24:41;;;;;;;2.83;1.40;;;;;;;;;;5059943;28;20252;-52
2023/03/06 14:27:08;;;;;;;2.00;1.50;;;;;;;;;;5069247;28;20229;-51
2023/03/06 14:29:33;;;;;;;7.78;1.50;;;;;;;;;;5043672;28;20622;-49
2023/03/06 14:32:01;;;;;;;2.58;1.60;;;;;;;;;;5062429;28;20207;-50
2023/03/06 14:34:32;;;;;;;3.22;1.50;;;;;;;;;;5054628;28;20188;-51
2023/03/06 14:37:00;;;;;;;1.42;1.25;;;;;;;;;;5062199;28;20275;-53
2023/03/06 14:39:42;;;;;;;2.72;1.80;;;;;;;;;;5050117;28;20257;-47
2023/03/06 14:42:23;;;;;;;4.95;1.40;;;;;;;;;;5075465;28;20588;-46
2023/03/06 14:44:59;;;;;;;2.97;1.65;;;;;;;;;;5056696;28;20206;-47
2023/03/06 14:47:27;;;;;;;2.55;1.80;;;;;;;;;;5052695;28;20183;-52
2023/03/06 14:50:11;;;;;;;2.40;1.88;;;;;;;;;;5058012;28;20586;-47